createdAt,value
2018-03-11T00:00:49.500Z,0.00
2018-03-11T00:01:49.732Z,0.00
2018-03-11T00:02:49.961Z,0.00
2018-03-11T00:03:50.187Z,0.00
2018-03-11T00:04:50.416Z,0.00
2018-03-11T00:05:50.643Z,0.00
2018-03-11T00:06:50.875Z,0.00
2018-03-11T00:07:51.101Z,0.00
2018-03-11T00:08:51.344Z,0.00
2018-03-11T00:09:51.573Z,0.00
2018-03-11T00:10:51.805Z,0.00
2018-03-11T00:11:52.030Z,0.00
2018-03-11T00:12:52.254Z,0.00
2018-03-11T00:13:52.481Z,0.00
2018-03-11T00:14:52.718Z,0.00
2018-03-11T00:15:52.938Z,0.00
2018-03-11T00:16:53.176Z,0.00
2018-03-11T00:17:53.398Z,0.00
2018-03-11T00:18:53.620Z,0.00
2018-03-11T00:19:53.849Z,0.00
2018-03-11T00:20:54.088Z,0.00
2018-03-11T00:21:54.317Z,0.00
2018-03-11T00:22:54.566Z,0.00
2018-03-11T00:23:54.762Z,0.00
2018-03-11T00:24:54.989Z,0.00
2018-03-11T00:25:55.218Z,0.00
2018-03-11T00:26:55.457Z,0.00
2018-03-11T00:27:55.690Z,0.00
2018-03-11T00:28:55.929Z,0.00
2018-03-11T00:29:56.136Z,0.00
2018-03-11T00:30:56.436Z,0.00
2018-03-11T00:31:56.663Z,0.00
2018-03-11T00:32:56.895Z,0.00
2018-03-11T00:33:57.120Z,0.00
2018-03-11T00:34:57.349Z,0.00
2018-03-11T00:35:57.578Z,0.00
2018-03-11T00:36:57.805Z,0.00
2018-03-11T00:37:58.032Z,0.00
2018-03-11T00:38:58.262Z,0.00
2018-03-11T00:39:58.492Z,0.00
2018-03-11T00:40:58.716Z,0.00
2018-03-11T00:41:58.947Z,0.00
2018-03-11T00:42:59.175Z,0.00
2018-03-11T00:43:59.408Z,0.00
2018-03-11T00:44:59.632Z,0.00
2018-03-11T00:45:59.861Z,0.00
2018-03-11T00:47:00.085Z,0.00
2018-03-11T00:48:00.318Z,0.00
2018-03-11T00:49:00.546Z,0.00
2018-03-11T00:50:00.777Z,0.00
2018-03-11T00:51:00.991Z,0.00
2018-03-11T00:52:01.225Z,0.00
2018-03-11T00:53:01.454Z,0.00
2018-03-11T00:54:01.685Z,0.00
2018-03-11T00:55:01.936Z,0.00
2018-03-11T00:56:02.153Z,0.00
2018-03-11T00:57:02.386Z,0.00
2018-03-11T00:58:02.615Z,0.00
2018-03-11T00:59:02.851Z,0.00
2018-03-11T01:00:03.081Z,0.00
2018-03-11T01:01:03.308Z,0.00
2018-03-11T01:02:03.537Z,0.00
2018-03-11T01:03:03.767Z,0.00
2018-03-11T01:04:04.012Z,0.00
2018-03-11T01:05:04.238Z,0.00
2018-03-11T01:06:04.468Z,0.00
2018-03-11T01:07:04.685Z,0.00
2018-03-11T01:08:04.921Z,0.00
2018-03-11T01:09:05.146Z,0.00
2018-03-11T01:10:05.382Z,0.00
2018-03-11T01:11:05.607Z,0.00
2018-03-11T01:12:05.863Z,0.00
2018-03-11T01:13:06.053Z,0.00
2018-03-11T01:14:06.280Z,0.00
2018-03-11T01:15:06.550Z,0.00
2018-03-11T01:16:06.735Z,0.00
2018-03-11T01:17:06.968Z,0.00
2018-03-11T01:18:07.196Z,0.00
2018-03-11T01:19:07.432Z,0.00
2018-03-11T01:20:07.641Z,0.00
2018-03-11T01:21:07.877Z,0.00
2018-03-11T01:22:08.106Z,0.00
2018-03-11T01:23:08.340Z,0.00
2018-03-11T01:24:08.568Z,0.00
2018-03-11T01:25:08.798Z,0.00
2018-03-11T01:26:09.016Z,0.00
2018-03-11T01:27:09.249Z,0.00
2018-03-11T01:28:09.475Z,0.00
2018-03-11T01:29:09.710Z,0.00
2018-03-11T01:30:09.946Z,0.00
2018-03-11T01:31:10.154Z,0.00
2018-03-11T01:32:10.381Z,0.00
2018-03-11T01:33:10.606Z,0.00
2018-03-11T01:34:10.835Z,0.00
2018-03-11T01:35:11.062Z,0.00
2018-03-11T01:36:11.297Z,0.00
2018-03-11T01:37:11.525Z,0.00
2018-03-11T01:38:11.754Z,0.00
2018-03-11T01:39:11.976Z,0.00
2018-03-11T01:40:12.207Z,0.00
2018-03-11T01:41:12.432Z,0.00
2018-03-11T01:42:12.666Z,0.00
2018-03-11T01:43:12.894Z,0.00
2018-03-11T01:44:13.126Z,0.00
2018-03-11T01:45:13.346Z,0.00
2018-03-11T01:46:13.576Z,0.00
2018-03-11T01:47:13.808Z,0.00
2018-03-11T01:48:14.043Z,0.00
2018-03-11T01:49:14.269Z,0.00
2018-03-11T01:50:14.498Z,0.00
2018-03-11T01:51:14.716Z,0.00
2018-03-11T01:52:14.948Z,0.00
2018-03-11T01:53:15.177Z,0.00
2018-03-11T01:54:15.411Z,0.00
2018-03-11T01:55:15.640Z,0.00
2018-03-11T01:56:15.873Z,0.00
2018-03-11T01:57:16.093Z,0.00
2018-03-11T01:58:16.321Z,0.00
2018-03-11T01:59:16.546Z,0.00
2018-03-11T02:00:16.787Z,0.00
2018-03-11T02:01:17.022Z,0.00
2018-03-11T02:02:17.248Z,0.00
2018-03-11T02:03:17.479Z,0.00
2018-03-11T02:04:17.705Z,0.00
2018-03-11T02:05:17.934Z,0.00
2018-03-11T02:06:18.162Z,0.00
2018-03-11T02:07:18.396Z,0.00
2018-03-11T02:08:18.617Z,0.00
2018-03-11T02:09:18.850Z,0.00
2018-03-11T02:10:19.075Z,0.00
2018-03-11T02:11:19.304Z,0.00
2018-03-11T02:12:19.533Z,0.00
2018-03-11T02:13:19.761Z,0.00
2018-03-11T02:14:19.988Z,0.00
2018-03-11T02:15:20.226Z,0.00
2018-03-11T02:16:20.437Z,0.00
2018-03-11T02:17:20.666Z,0.00
2018-03-11T02:18:20.900Z,0.00
2018-03-11T02:19:21.128Z,0.00
2018-03-11T02:20:21.363Z,0.00
2018-03-11T02:21:21.583Z,0.00
2018-03-11T02:22:21.811Z,0.00
2018-03-11T02:23:22.040Z,0.00
2018-03-11T02:24:22.273Z,0.00
2018-03-11T02:25:22.504Z,0.00
2018-03-11T02:26:22.733Z,0.00
2018-03-11T02:27:22.962Z,0.00
2018-03-11T02:28:23.186Z,0.00
2018-03-11T02:29:23.419Z,0.00
2018-03-11T02:30:23.647Z,0.00
2018-03-11T02:31:23.877Z,0.00
2018-03-11T02:32:24.105Z,0.00
2018-03-11T02:33:24.330Z,0.00
2018-03-11T02:34:24.559Z,0.00
2018-03-11T02:35:24.787Z,0.00
2018-03-11T02:36:25.019Z,0.00
2018-03-11T02:37:25.257Z,0.00
2018-03-11T02:38:25.478Z,0.00
2018-03-11T02:39:25.694Z,0.00
2018-03-11T02:40:25.928Z,0.00
2018-03-11T02:41:26.156Z,0.00
2018-03-11T02:42:26.391Z,0.00
2018-03-11T02:43:26.620Z,0.00
2018-03-11T02:44:26.871Z,0.00
2018-03-11T02:45:27.074Z,0.00
2018-03-11T02:46:27.302Z,0.00
2018-03-11T02:47:27.530Z,0.00
2018-03-11T02:48:27.765Z,0.00
2018-03-11T02:49:27.992Z,0.00
2018-03-11T02:50:28.230Z,0.00
2018-03-11T02:51:28.448Z,0.00
2018-03-11T02:52:28.676Z,0.00
2018-03-11T02:53:28.901Z,0.00
2018-03-11T02:54:29.122Z,0.00
2018-03-11T02:55:29.353Z,0.00
2018-03-11T02:56:29.579Z,0.00
2018-03-11T02:57:29.806Z,0.00
2018-03-11T02:58:30.037Z,0.00
2018-03-11T02:59:30.265Z,0.00
2018-03-11T03:00:30.497Z,0.00
2018-03-11T03:01:30.729Z,0.00
2018-03-11T03:02:30.966Z,0.00
2018-03-11T03:03:31.182Z,0.00
2018-03-11T03:04:31.416Z,0.00
2018-03-11T03:05:31.644Z,0.00
2018-03-11T03:06:31.881Z,0.00
2018-03-11T03:07:32.110Z,0.00
2018-03-11T03:08:32.343Z,0.00
2018-03-11T03:09:32.561Z,0.00
2018-03-11T03:10:32.795Z,0.00
2018-03-11T03:11:33.025Z,0.00
2018-03-11T03:12:33.257Z,0.00
2018-03-11T03:13:33.473Z,0.00
2018-03-11T03:14:33.702Z,0.00
2018-03-11T03:15:33.930Z,0.00
2018-03-11T03:16:34.174Z,0.00
2018-03-11T03:17:34.398Z,0.00
2018-03-11T03:18:34.626Z,0.00
2018-03-11T03:19:34.855Z,0.00
2018-03-11T03:20:35.083Z,0.00
2018-03-11T03:21:35.307Z,0.00
2018-03-11T03:22:35.538Z,0.00
2018-03-11T03:23:35.765Z,0.00
2018-03-11T03:24:36.009Z,0.00
2018-03-11T03:25:36.218Z,0.00
2018-03-11T03:26:36.471Z,0.00
2018-03-11T03:27:36.657Z,0.00
2018-03-11T03:28:36.928Z,0.00
2018-03-11T03:29:37.095Z,0.00
2018-03-11T03:30:37.324Z,0.00
2018-03-11T03:31:37.556Z,0.00
2018-03-11T03:32:37.793Z,0.00
2018-03-11T03:33:38.022Z,0.00
2018-03-11T03:34:38.253Z,0.00
2018-03-11T03:35:38.469Z,0.00
2018-03-11T03:36:38.706Z,0.00
2018-03-11T03:37:38.935Z,0.00
2018-03-11T03:38:39.165Z,0.00
2018-03-11T03:39:39.393Z,0.00
2018-03-11T03:40:39.626Z,0.00
2018-03-11T03:41:39.845Z,0.00
2018-03-11T03:42:40.072Z,0.00
2018-03-11T03:43:40.301Z,0.00
2018-03-11T03:44:40.540Z,0.00
2018-03-11T03:45:40.768Z,0.00
2018-03-11T03:46:40.995Z,0.00
2018-03-11T03:47:41.225Z,0.00
2018-03-11T03:48:41.455Z,0.00
2018-03-11T03:49:41.683Z,0.00
2018-03-11T03:50:41.912Z,0.00
2018-03-11T03:51:42.140Z,0.00
2018-03-11T03:52:42.367Z,0.00
2018-03-11T03:53:42.593Z,0.00
2018-03-11T03:54:42.818Z,0.00
2018-03-11T03:55:43.047Z,0.00
2018-03-11T03:56:43.281Z,0.00
2018-03-11T03:57:43.510Z,0.00
2018-03-11T03:58:43.739Z,0.00
2018-03-11T03:59:44.023Z,0.00
2018-03-11T04:00:44.218Z,0.00
2018-03-11T04:01:44.453Z,0.00
2018-03-11T04:02:44.658Z,0.00
2018-03-11T04:03:44.886Z,0.00
2018-03-11T04:04:45.116Z,0.00
2018-03-11T04:05:45.346Z,0.00
2018-03-11T04:06:45.571Z,0.00
2018-03-11T04:07:45.801Z,0.00
2018-03-11T04:08:46.035Z,0.00
2018-03-11T04:09:46.258Z,0.00
2018-03-11T04:10:46.488Z,0.00
2018-03-11T04:11:46.712Z,0.00
2018-03-11T04:12:46.941Z,0.00
2018-03-11T04:13:47.170Z,0.00
2018-03-11T04:14:47.398Z,0.00
2018-03-11T04:15:47.628Z,0.00
2018-03-11T04:16:47.865Z,0.00
2018-03-11T04:17:48.079Z,0.00
2018-03-11T04:18:48.311Z,0.00
2018-03-11T04:19:48.536Z,0.00
2018-03-11T04:20:48.771Z,0.00
2018-03-11T04:21:48.999Z,0.00
2018-03-11T04:22:49.228Z,0.00
2018-03-11T04:23:49.457Z,0.00
2018-03-11T04:24:49.685Z,0.00
2018-03-11T04:25:49.914Z,0.00
2018-03-11T04:26:50.140Z,0.00
2018-03-11T04:27:50.380Z,0.00
2018-03-11T04:28:50.592Z,0.00
2018-03-11T04:29:50.821Z,0.00
2018-03-11T04:30:51.052Z,0.00
2018-03-11T04:31:51.283Z,0.00
2018-03-11T04:32:51.518Z,0.00
2018-03-11T04:33:51.742Z,0.00
2018-03-11T04:34:51.972Z,0.00
2018-03-11T04:35:52.196Z,0.00
2018-03-11T04:36:52.424Z,0.00
2018-03-11T04:37:52.651Z,0.00
2018-03-11T04:38:52.888Z,0.00
2018-03-11T04:39:53.111Z,0.00
2018-03-11T04:40:53.345Z,0.00
2018-03-11T04:41:53.565Z,0.00
2018-03-11T04:42:53.798Z,0.00
2018-03-11T04:43:54.023Z,0.00
2018-03-11T04:44:54.258Z,0.00
2018-03-11T04:45:54.489Z,0.00
2018-03-11T04:46:54.719Z,0.00
2018-03-11T04:47:54.939Z,0.00
2018-03-11T04:48:55.167Z,0.00
2018-03-11T04:49:55.395Z,0.00
2018-03-11T04:50:55.631Z,0.00
2018-03-11T04:51:55.859Z,0.00
2018-03-11T04:52:56.091Z,0.00
2018-03-11T04:53:56.311Z,0.00
2018-03-11T04:54:56.541Z,0.00
2018-03-11T04:55:56.769Z,0.00
2018-03-11T04:56:57.004Z,0.00
2018-03-11T04:57:57.233Z,0.00
2018-03-11T04:58:57.462Z,0.00
2018-03-11T04:59:57.685Z,0.00
2018-03-11T05:00:57.915Z,0.00
2018-03-11T05:01:58.142Z,0.00
2018-03-11T05:02:58.380Z,0.00
2018-03-11T05:03:58.604Z,0.00
2018-03-11T05:04:58.834Z,0.00
2018-03-11T05:05:59.060Z,0.00
2018-03-11T05:06:59.294Z,0.00
2018-03-11T05:07:59.523Z,0.00
2018-03-11T05:08:59.753Z,0.00
2018-03-11T05:09:59.980Z,0.00
2018-03-11T05:11:00.207Z,0.00
2018-03-11T05:12:00.436Z,0.00
2018-03-11T05:13:00.664Z,0.00
2018-03-11T05:14:00.890Z,0.00
2018-03-11T05:15:01.125Z,0.00
2018-03-11T05:16:01.356Z,0.00
2018-03-11T05:17:01.585Z,0.00
2018-03-11T05:18:01.808Z,0.00
2018-03-11T05:19:02.037Z,0.00
2018-03-11T05:20:02.265Z,0.00
2018-03-11T05:21:02.495Z,0.00
2018-03-11T05:22:02.722Z,0.00
2018-03-11T05:23:02.952Z,0.00
2018-03-11T05:24:03.175Z,0.00
2018-03-11T05:25:03.395Z,0.00
2018-03-11T05:26:03.634Z,0.00
2018-03-11T05:27:03.864Z,0.00
2018-03-11T05:28:04.096Z,0.00
2018-03-11T05:29:04.347Z,0.00
2018-03-11T05:30:04.578Z,0.00
2018-03-11T05:31:04.811Z,0.00
2018-03-11T05:32:05.042Z,0.00
2018-03-11T05:33:05.266Z,0.00
2018-03-11T05:34:05.496Z,0.00
2018-03-11T05:35:05.726Z,0.00
2018-03-11T05:36:05.954Z,0.00
2018-03-11T05:37:06.189Z,0.00
2018-03-11T05:38:06.415Z,0.00
2018-03-11T05:39:06.645Z,0.00
2018-03-11T05:40:06.869Z,0.00
2018-03-11T05:41:07.146Z,0.00
2018-03-11T05:42:07.362Z,0.00
2018-03-11T05:43:07.594Z,4.00
2018-03-11T05:44:07.816Z,4.00
2018-03-11T05:45:08.045Z,0.00
2018-03-11T05:46:08.274Z,0.00
2018-03-11T05:47:08.511Z,0.00
2018-03-11T05:48:08.741Z,4.00
2018-03-11T05:49:08.966Z,4.00
2018-03-11T05:50:09.198Z,4.00
2018-03-11T05:51:09.428Z,4.00
2018-03-11T05:52:09.681Z,4.00
2018-03-11T05:53:09.882Z,4.00
2018-03-11T05:54:10.110Z,4.00
2018-03-11T05:55:10.339Z,4.00
2018-03-11T05:56:10.555Z,4.00
2018-03-11T05:57:10.791Z,4.00
2018-03-11T05:58:11.021Z,4.00
2018-03-11T05:59:11.253Z,4.00
2018-03-11T06:00:11.480Z,4.00
2018-03-11T06:01:11.743Z,0.00
2018-03-11T06:02:11.923Z,4.00
2018-03-11T06:03:12.144Z,4.00
2018-03-11T06:04:12.373Z,8.00
2018-03-11T06:05:12.602Z,4.00
2018-03-11T06:06:12.840Z,8.00
2018-03-11T06:07:13.069Z,4.00
2018-03-11T06:08:13.295Z,4.00
2018-03-11T06:09:13.526Z,4.00
2018-03-11T06:10:13.755Z,8.00
2018-03-11T06:11:13.983Z,4.00
2018-03-11T06:12:14.271Z,4.00
2018-03-11T06:13:14.497Z,8.00
2018-03-11T06:14:14.734Z,8.00
2018-03-11T06:15:14.963Z,8.00
2018-03-11T06:16:15.193Z,8.00
2018-03-11T06:17:15.412Z,12.00
2018-03-11T06:18:15.645Z,8.00
2018-03-11T06:19:15.877Z,12.00
2018-03-11T06:20:16.109Z,12.00
2018-03-11T06:21:16.334Z,12.00
2018-03-11T06:22:16.564Z,12.00
2018-03-11T06:23:16.793Z,8.00
2018-03-11T06:24:17.018Z,8.00
2018-03-11T06:25:17.247Z,12.00
2018-03-11T06:26:17.479Z,12.00
2018-03-11T06:27:17.710Z,12.00
2018-03-11T06:28:17.938Z,12.00
2018-03-11T06:29:18.168Z,12.00
2018-03-11T06:30:18.399Z,12.00
2018-03-11T06:31:18.626Z,12.00
2018-03-11T06:32:18.868Z,12.00
2018-03-11T06:33:19.101Z,8.00
2018-03-11T06:34:19.319Z,12.00
2018-03-11T06:35:19.546Z,12.00
2018-03-11T06:36:19.777Z,16.00
2018-03-11T06:37:20.015Z,12.00
2018-03-11T06:38:20.241Z,16.00
2018-03-11T06:39:20.471Z,20.00
2018-03-11T06:40:20.691Z,24.00
2018-03-11T06:41:20.921Z,20.00
2018-03-11T06:42:21.148Z,24.00
2018-03-11T06:43:21.384Z,24.00
2018-03-11T06:44:21.614Z,24.00
2018-03-11T06:45:21.842Z,28.00
2018-03-11T06:46:22.066Z,28.00
2018-03-11T06:47:22.294Z,28.00
2018-03-11T06:48:22.523Z,28.00
2018-03-11T06:49:22.758Z,24.00
2018-03-11T06:50:22.991Z,32.00
2018-03-11T06:51:23.216Z,32.00
2018-03-11T06:52:23.437Z,28.00
2018-03-11T06:53:23.666Z,28.00
2018-03-11T06:54:23.895Z,24.00
2018-03-11T06:55:24.129Z,24.00
2018-03-11T06:56:24.357Z,24.00
2018-03-11T06:57:24.587Z,32.00
2018-03-11T06:58:24.819Z,28.00
2018-03-11T06:59:25.047Z,32.00
2018-03-11T07:00:25.273Z,32.00
2018-03-11T07:01:25.504Z,36.00
2018-03-11T07:02:25.729Z,40.00
2018-03-11T07:03:25.959Z,40.00
2018-03-11T07:04:26.193Z,36.00
2018-03-11T07:05:26.420Z,28.00
2018-03-11T07:06:26.642Z,28.00
2018-03-11T07:07:26.879Z,28.00
2018-03-11T07:08:27.112Z,28.00
2018-03-11T07:09:27.334Z,32.00
2018-03-11T07:10:27.566Z,32.00
2018-03-11T07:11:27.799Z,32.00
2018-03-11T07:12:28.034Z,48.00
2018-03-11T07:13:28.265Z,44.00
2018-03-11T07:14:28.524Z,52.00
2018-03-11T07:15:28.747Z,52.00
2018-03-11T07:16:28.982Z,56.00
2018-03-11T07:17:29.210Z,52.00
2018-03-11T07:18:29.441Z,56.00
2018-03-11T07:19:29.664Z,60.00
2018-03-11T07:20:29.893Z,56.00
2018-03-11T07:21:30.122Z,52.00
2018-03-11T07:22:30.357Z,48.00
2018-03-11T07:23:30.584Z,44.00
2018-03-11T07:24:30.817Z,40.00
2018-03-11T07:25:31.036Z,40.00
2018-03-11T07:26:31.266Z,36.00
2018-03-11T07:27:31.494Z,40.00
2018-03-11T07:28:31.729Z,40.00
2018-03-11T07:29:31.956Z,36.00
2018-03-11T07:30:32.186Z,40.00
2018-03-11T07:31:32.410Z,40.00
2018-03-11T07:32:32.637Z,36.00
2018-03-11T07:33:32.867Z,40.00
2018-03-11T07:34:33.099Z,40.00
2018-03-11T07:35:33.328Z,44.00
2018-03-11T07:36:33.558Z,44.00
2018-03-11T07:37:33.779Z,48.00
2018-03-11T07:38:34.009Z,48.00
2018-03-11T07:39:34.237Z,56.00
2018-03-11T07:40:34.472Z,56.00
2018-03-11T07:41:34.701Z,56.00
2018-03-11T07:42:34.933Z,52.00
2018-03-11T07:43:35.157Z,52.00
2018-03-11T07:44:35.386Z,52.00
2018-03-11T07:45:35.615Z,52.00
2018-03-11T07:46:35.849Z,56.00
2018-03-11T07:47:36.073Z,56.00
2018-03-11T07:48:36.303Z,56.00
2018-03-11T07:49:36.529Z,60.00
2018-03-11T07:50:36.757Z,64.00
2018-03-11T07:51:36.986Z,64.00
2018-03-11T07:52:37.216Z,68.00
2018-03-11T07:53:37.447Z,68.00
2018-03-11T07:54:37.679Z,68.00
2018-03-11T07:55:37.905Z,68.00
2018-03-11T07:56:38.134Z,68.00
2018-03-11T07:57:38.363Z,64.00
2018-03-11T07:58:38.590Z,64.00
2018-03-11T07:59:38.820Z,64.00
2018-03-11T08:00:39.052Z,64.00
2018-03-11T08:01:39.280Z,68.00
2018-03-11T08:02:39.512Z,68.00
2018-03-11T08:03:39.748Z,64.00
2018-03-11T08:04:39.983Z,60.00
2018-03-11T08:05:40.208Z,60.00
2018-03-11T08:06:40.432Z,64.00
2018-03-11T08:07:40.659Z,68.00
2018-03-11T08:08:40.892Z,68.00
2018-03-11T08:09:41.121Z,64.00
2018-03-11T08:10:41.351Z,64.00
2018-03-11T08:11:41.580Z,60.00
2018-03-11T08:12:41.800Z,56.00
2018-03-11T08:13:42.030Z,52.00
2018-03-11T08:14:42.260Z,48.00
2018-03-11T08:15:42.500Z,44.00
2018-03-11T08:16:42.718Z,44.00
2018-03-11T08:17:42.952Z,40.00
2018-03-11T08:18:43.173Z,36.00
2018-03-11T08:19:43.399Z,32.00
2018-03-11T08:20:43.628Z,36.00
2018-03-11T08:21:43.865Z,28.00
2018-03-11T08:22:44.094Z,32.00
2018-03-11T08:23:44.325Z,28.00
2018-03-11T08:24:44.548Z,28.00
2018-03-11T08:25:44.797Z,24.00
2018-03-11T08:26:45.028Z,20.00
2018-03-11T08:27:45.253Z,24.00
2018-03-11T08:28:45.486Z,24.00
2018-03-11T08:29:45.709Z,24.00
2018-03-11T08:30:45.937Z,28.00
2018-03-11T08:31:46.166Z,28.00
2018-03-11T08:32:46.400Z,28.00
2018-03-11T08:33:46.629Z,28.00
2018-03-11T08:34:46.873Z,32.00
2018-03-11T08:35:47.102Z,32.00
2018-03-11T08:36:47.331Z,32.00
2018-03-11T08:37:47.561Z,36.00
2018-03-11T08:38:47.789Z,36.00
2018-03-11T08:39:48.019Z,44.00
2018-03-11T08:40:48.239Z,44.00
2018-03-11T08:41:48.468Z,48.00
2018-03-11T08:42:48.778Z,52.00
2018-03-11T08:43:48.935Z,52.00
2018-03-11T08:44:49.164Z,48.00
2018-03-11T08:45:49.391Z,48.00
2018-03-11T08:46:49.690Z,48.00
2018-03-11T08:47:49.845Z,48.00
2018-03-11T08:48:50.071Z,44.00
2018-03-11T08:49:50.306Z,44.00
2018-03-11T08:50:50.533Z,40.00
2018-03-11T08:51:50.770Z,40.00
2018-03-11T08:52:50.986Z,40.00
2018-03-11T08:53:51.286Z,40.00
2018-03-11T08:54:51.447Z,44.00
2018-03-11T08:55:51.697Z,48.00
2018-03-11T08:56:51.912Z,48.00
2018-03-11T08:57:52.143Z,52.00
2018-03-11T08:58:52.356Z,52.00
2018-03-11T08:59:52.595Z,52.00
2018-03-11T09:00:52.818Z,60.00
2018-03-11T09:01:53.049Z,56.00
2018-03-11T09:02:53.278Z,64.00
2018-03-11T09:03:53.535Z,56.00
2018-03-11T09:04:53.730Z,64.00
2018-03-11T09:05:53.957Z,76.00
2018-03-11T09:06:54.182Z,72.00
2018-03-11T09:07:54.421Z,76.00
2018-03-11T09:08:54.649Z,72.00
2018-03-11T09:09:54.886Z,80.00
2018-03-11T09:10:55.099Z,76.00
2018-03-11T09:11:55.329Z,76.00
2018-03-11T09:12:55.555Z,72.00
2018-03-11T09:13:55.799Z,72.00
2018-03-11T09:14:56.018Z,68.00
2018-03-11T09:15:56.254Z,68.00
2018-03-11T09:16:56.470Z,68.00
2018-03-11T09:17:56.701Z,64.00
2018-03-11T09:18:56.932Z,64.00
2018-03-11T09:19:57.168Z,64.00
2018-03-11T09:20:57.396Z,64.00
2018-03-11T09:21:57.625Z,68.00
2018-03-11T09:22:57.844Z,64.00
2018-03-11T09:23:58.077Z,64.00
2018-03-11T09:24:58.306Z,64.00
2018-03-11T09:25:58.540Z,64.00
2018-03-11T09:26:58.769Z,64.00
2018-03-11T09:27:59.000Z,64.00
2018-03-11T09:28:59.223Z,64.00
2018-03-11T09:29:59.451Z,68.00
2018-03-11T09:30:59.679Z,64.00
2018-03-11T09:31:59.910Z,68.00
2018-03-11T09:33:00.140Z,64.00
2018-03-11T09:34:00.369Z,68.00
2018-03-11T09:35:00.593Z,64.00
2018-03-11T09:36:00.820Z,64.00
2018-03-11T09:37:01.054Z,64.00
2018-03-11T09:38:01.282Z,64.00
2018-03-11T09:39:01.511Z,64.00
2018-03-11T09:40:01.733Z,64.00
2018-03-11T09:41:01.963Z,68.00
2018-03-11T09:42:02.192Z,64.00
2018-03-11T09:43:02.420Z,64.00
2018-03-11T09:44:02.656Z,68.00
2018-03-11T09:45:02.884Z,68.00
2018-03-11T09:46:03.114Z,60.00
2018-03-11T09:47:03.335Z,72.00
2018-03-11T09:48:03.576Z,56.00
2018-03-11T09:49:03.804Z,56.00
2018-03-11T09:50:04.031Z,68.00
2018-03-11T09:51:04.260Z,72.00
2018-03-11T09:52:04.490Z,72.00
2018-03-11T09:53:04.717Z,52.00
2018-03-11T09:54:04.949Z,52.00
2018-03-11T09:55:05.167Z,52.00
2018-03-11T09:56:05.400Z,52.00
2018-03-11T09:57:05.636Z,56.00
2018-03-11T09:58:05.858Z,64.00
2018-03-11T09:59:06.087Z,76.00
2018-03-11T10:00:06.313Z,76.00
2018-03-11T10:01:06.579Z,76.00
2018-03-11T10:02:06.807Z,64.00
2018-03-11T10:03:07.067Z,68.00
2018-03-11T10:04:07.257Z,64.00
2018-03-11T10:05:07.487Z,76.00
2018-03-11T10:06:07.725Z,76.00
2018-03-11T10:07:07.943Z,76.00
2018-03-11T10:08:08.172Z,76.00
2018-03-11T10:09:08.395Z,60.00
2018-03-11T10:10:08.628Z,72.00
2018-03-11T10:11:08.859Z,72.00
2018-03-11T10:12:09.092Z,72.00
2018-03-11T10:13:09.321Z,72.00
2018-03-11T10:14:09.554Z,72.00
2018-03-11T10:15:09.774Z,76.00
2018-03-11T10:16:10.004Z,72.00
2018-03-11T10:17:10.234Z,76.00
2018-03-11T10:18:10.466Z,72.00
2018-03-11T10:19:10.695Z,72.00
2018-03-11T10:20:10.952Z,68.00
2018-03-11T10:21:11.182Z,68.00
2018-03-11T10:22:11.415Z,72.00
2018-03-11T10:23:11.643Z,72.00
2018-03-11T10:24:11.877Z,68.00
2018-03-11T10:25:12.100Z,72.00
2018-03-11T10:26:12.329Z,68.00
2018-03-11T10:27:12.557Z,68.00
2018-03-11T10:28:12.788Z,68.00
2018-03-11T10:29:13.017Z,72.00
2018-03-11T10:30:13.246Z,72.00
2018-03-11T10:31:13.470Z,72.00
2018-03-11T10:32:13.699Z,72.00
2018-03-11T10:33:13.934Z,72.00
2018-03-11T10:34:14.161Z,72.00
2018-03-11T10:35:14.406Z,72.00
2018-03-11T10:36:14.629Z,72.00
2018-03-11T10:37:14.859Z,72.00
2018-03-11T10:38:15.127Z,76.00
2018-03-11T10:39:15.296Z,72.00
2018-03-11T10:40:15.531Z,72.00
2018-03-11T10:41:15.760Z,72.00
2018-03-11T10:42:15.990Z,76.00
2018-03-11T10:43:16.213Z,72.00
2018-03-11T10:44:16.442Z,72.00
2018-03-11T10:45:16.672Z,64.00
2018-03-11T10:46:16.905Z,72.00
2018-03-11T10:47:17.131Z,64.00
2018-03-11T10:48:17.362Z,72.00
2018-03-11T10:49:17.584Z,68.00
2018-03-11T10:50:17.813Z,64.00
2018-03-11T10:51:18.042Z,64.00
2018-03-11T10:52:18.282Z,64.00
2018-03-11T10:53:18.503Z,64.00
2018-03-11T10:54:18.736Z,64.00
2018-03-11T10:55:18.959Z,60.00
2018-03-11T10:56:19.183Z,64.00
2018-03-11T10:57:19.412Z,60.00
2018-03-11T10:58:19.650Z,64.00
2018-03-11T10:59:19.876Z,60.00
2018-03-11T11:00:20.107Z,64.00
2018-03-11T11:01:20.330Z,56.00
2018-03-11T11:02:20.561Z,60.00
2018-03-11T11:03:20.790Z,60.00
2018-03-11T11:04:21.021Z,56.00
2018-03-11T11:05:21.251Z,52.00
2018-03-11T11:06:21.484Z,48.00
2018-03-11T11:07:21.705Z,52.00
2018-03-11T11:08:21.935Z,44.00
2018-03-11T11:09:22.162Z,48.00
2018-03-11T11:10:22.397Z,44.00
2018-03-11T11:11:22.626Z,44.00
2018-03-11T11:12:22.852Z,44.00
2018-03-11T11:13:23.079Z,48.00
2018-03-11T11:14:23.317Z,44.00
2018-03-11T11:15:23.552Z,44.00
2018-03-11T11:16:23.781Z,44.00
2018-03-11T11:17:24.012Z,44.00
2018-03-11T11:18:24.230Z,44.00
2018-03-11T11:19:24.462Z,48.00
2018-03-11T11:20:24.691Z,44.00
2018-03-11T11:21:24.927Z,48.00
2018-03-11T11:22:25.155Z,44.00
2018-03-11T11:23:25.384Z,44.00
2018-03-11T11:24:25.604Z,44.00
2018-03-11T11:25:25.836Z,44.00
2018-03-11T11:26:26.065Z,48.00
2018-03-11T11:27:26.300Z,44.00
2018-03-11T11:28:26.528Z,40.00
2018-03-11T11:29:26.757Z,44.00
2018-03-11T11:30:26.977Z,44.00
2018-03-11T11:31:27.197Z,44.00
2018-03-11T11:32:27.423Z,48.00
2018-03-11T11:33:27.652Z,48.00
2018-03-11T11:34:27.882Z,48.00
2018-03-11T11:35:28.111Z,48.00
2018-03-11T11:36:28.341Z,44.00
2018-03-11T11:37:28.585Z,52.00
2018-03-11T11:38:28.813Z,48.00
2018-03-11T11:39:29.042Z,44.00
2018-03-11T11:40:29.271Z,44.00
2018-03-11T11:41:29.502Z,44.00
2018-03-11T11:42:29.719Z,40.00
2018-03-11T11:43:29.945Z,44.00
2018-03-11T11:44:30.173Z,44.00
2018-03-11T11:45:30.402Z,44.00
2018-03-11T11:46:30.630Z,44.00
2018-03-11T11:47:30.860Z,48.00
2018-03-11T11:48:31.087Z,48.00
2018-03-11T11:49:31.317Z,44.00
2018-03-11T11:50:31.557Z,44.00
2018-03-11T11:51:31.793Z,48.00
2018-03-11T11:52:32.003Z,48.00
2018-03-11T11:53:32.232Z,44.00
2018-03-11T11:54:32.459Z,44.00
2018-03-11T11:55:32.689Z,44.00
2018-03-11T11:56:32.918Z,40.00
2018-03-11T11:57:33.144Z,44.00
2018-03-11T11:58:33.376Z,44.00
2018-03-11T11:59:33.605Z,40.00
2018-03-11T12:00:33.876Z,40.00
2018-03-11T12:01:34.096Z,36.00
2018-03-11T12:02:34.320Z,36.00
2018-03-11T12:03:34.549Z,40.00
2018-03-11T12:04:34.780Z,40.00
2018-03-11T12:05:35.010Z,40.00
2018-03-11T12:06:35.253Z,40.00
2018-03-11T12:07:35.462Z,40.00
2018-03-11T12:08:35.696Z,44.00
2018-03-11T12:09:35.925Z,48.00
2018-03-11T12:10:36.152Z,52.00
2018-03-11T12:11:36.383Z,56.00
2018-03-11T12:12:36.652Z,52.00
2018-03-11T12:13:36.839Z,56.00
2018-03-11T12:14:37.069Z,56.00
2018-03-11T12:15:37.297Z,56.00
2018-03-11T12:16:37.540Z,52.00
2018-03-11T12:17:37.749Z,52.00
2018-03-11T12:18:37.979Z,56.00
2018-03-11T12:19:38.209Z,56.00
2018-03-11T12:20:38.437Z,56.00
2018-03-11T12:21:38.671Z,48.00
2018-03-11T12:22:38.900Z,40.00
2018-03-11T12:23:39.112Z,40.00
2018-03-11T12:24:39.345Z,40.00
2018-03-11T12:25:39.573Z,40.00
2018-03-11T12:26:39.811Z,44.00
2018-03-11T12:27:40.038Z,48.00
2018-03-11T12:28:40.268Z,56.00
2018-03-11T12:29:40.484Z,60.00
2018-03-11T12:30:40.717Z,72.00
2018-03-11T12:31:40.949Z,88.00
2018-03-11T12:32:41.181Z,100.00
2018-03-11T12:33:41.410Z,108.00
2018-03-11T12:34:41.644Z,128.00
2018-03-11T12:35:41.862Z,112.00
2018-03-11T12:36:42.091Z,120.00
2018-03-11T12:37:42.320Z,124.00
2018-03-11T12:38:42.555Z,120.00
2018-03-11T12:39:42.824Z,104.00
2018-03-11T12:40:43.013Z,96.00
2018-03-11T12:41:43.230Z,108.00
2018-03-11T12:42:43.468Z,100.00
2018-03-11T12:43:43.694Z,92.00
2018-03-11T12:44:43.942Z,92.00
2018-03-11T12:45:44.145Z,88.00
2018-03-11T12:46:44.375Z,88.00
2018-03-11T12:47:44.602Z,96.00
2018-03-11T12:48:44.829Z,88.00
2018-03-11T12:49:45.061Z,84.00
2018-03-11T12:50:45.288Z,80.00
2018-03-11T12:51:45.516Z,84.00
2018-03-11T12:52:45.749Z,88.00
2018-03-11T12:53:45.969Z,88.00
2018-03-11T12:54:46.200Z,92.00
2018-03-11T12:55:46.438Z,80.00
2018-03-11T12:56:46.672Z,80.00
2018-03-11T12:57:46.900Z,76.00
2018-03-11T12:58:47.130Z,84.00
2018-03-11T12:59:47.355Z,84.00
2018-03-11T13:00:47.584Z,80.00
2018-03-11T13:01:47.814Z,72.00
2018-03-11T13:02:48.045Z,72.00
2018-03-11T13:03:48.272Z,68.00
2018-03-11T13:04:48.504Z,68.00
2018-03-11T13:05:48.724Z,64.00
2018-03-11T13:06:48.950Z,64.00
2018-03-11T13:07:49.178Z,60.00